Time;durP1;ratioP1;P1;durP2;ratioP2;P2;SDS_P1;SDS_P2;PMS_P1;PMS_P2;Temp;Humidity;BMP_temperature;BMP_pressure;BME280_temperature;BME280_humidity;BME280_pressure;Samples;Min_cycle;Max_cycle;Signal;HPM_P1;HPM_P2
2023/09/04 08:22:09;;;;;;;453.33;292.07;;;;;;;;;;5039154;28;21173;-50
2023/09/04 08:24:35;;;;;;;;;;;;;;;;;;5032802;28;20302;-50
2023/09/04 08:27:01;;;;;;;454.37;268.60;;;;;;;;;;5044876;28;20474;-50
2023/09/04 08:29:27;;;;;;;452.53;269.17;;;;;;;;;;5045553;28;20801;-50
2023/09/04 08:31:53;;;;;;;437.47;259.90;;;;;;;;;;5044711;28;20250;-50
2023/09/04 08:34:19;;;;;;;482.53;293.73;;;;;;;;;;5046749;23;20263;-52
2023/09/04 08:36:46;;;;;;;494.90;292.20;;;;;;;;;;5010985;28;20277;-51
2023/09/04 08:39:12;;;;;;;461.63;266.93;;;;;;;;;;5008669;28;20626;-50
2023/09/04 08:41:37;;;;;;;452.70;263.43;;;;;;;;;;5013961;28;20188;-50
2023/09/04 08:44:04;;;;;;;468.50;268.13;;;;;;;;;;5002977;28;20208;-48
2023/09/04 08:46:31;;;;;;;461.23;265.17;;;;;;;;;;5003536;28;20223;-47
2023/09/04 08:48:59;;;;;;;486.47;284.70;;;;;;;;;;4992507;28;20227;-49
2023/09/04 08:51:26;;;;;;;457.93;264.77;;;;;;;;;;4994866;28;20610;-49
2023/09/04 08:53:52;;;;;;;502.93;290.23;;;;;;;;;;4991094;28;20250;-49
2023/09/04 08:56:18;;;;;;;505.30;295.10;;;;;;;;;;4993656;28;20521;-49
2023/09/04 08:58:45;;;;;;;487.53;285.97;;;;;;;;;;4992382;28;20216;-50
2023/09/04 09:01:13;;;;;;;469.67;265.30;;;;;;;;;;4997782;28;20231;-50
2023/09/04 09:03:40;;;;;;;473.03;268.23;;;;;;;;;;4996584;28;20224;-49
2023/09/04 09:06:06;;;;;;;494.77;286.20;;;;;;;;;;4988435;28;20223;-49
2023/09/04 09:08:33;;;;;;;501.10;285.23;;;;;;;;;;4987944;28;20243;-49
2023/09/04 09:11:03;;;;;;;501.67;288.47;;;;;;;;;;4986932;28;20287;-49
2023/09/04 09:13:29;;;;;;;506.47;297.83;;;;;;;;;;4990656;28;20228;-49
2023/09/04 09:15:55;;;;;;;475.03;273.27;;;;;;;;;;4996730;28;20701;-49
2023/09/04 09:18:33;;;;;;;463.93;263.90;;;;;;;;;;4989462;28;20228;-49
2023/09/04 09:20:59;;;;;;;508.23;301.57;;;;;;;;;;4982823;28;20229;-50
2023/09/04 09:23:25;;;;;;;479.60;284.50;;;;;;;;;;4989064;28;20543;-49
2023/09/04 09:25:54;;;;;;;499.37;304.13;;;;;;;;;;4993674;28;20217;-49
2023/09/04 09:28:21;;;;;;;499.93;298.03;;;;;;;;;;4996722;28;20252;-49
2023/09/04 09:30:47;;;;;;;478.20;273.17;;;;;;;;;;4992281;28;20228;-49
2023/09/04 09:33:15;;;;;;;465.43;266.53;;;;;;;;;;4974960;28;20687;-49
2023/09/04 09:35:41;;;;;;;470.47;278.10;;;;;;;;;;4984294;28;20200;-49
2023/09/04 09:38:07;;;;;;;484.00;279.87;;;;;;;;;;4981918;28;20541;-49
2023/09/04 09:40:34;;;;;;;494.63;294.13;;;;;;;;;;4986843;28;20217;-50
2023/09/04 09:43:00;;;;;;;474.77;286.20;;;;;;;;;;4979186;28;20315;-49
2023/09/04 09:45:30;;;;;;;488.20;290.80;;;;;;;;;;4979540;28;20235;-49
2023/09/04 09:47:56;;;;;;;465.93;277.30;;;;;;;;;;4973311;28;20196;-49
2023/09/04 09:50:25;;;;;;;468.30;282.43;;;;;;;;;;4983546;28;20668;-49
2023/09/04 09:52:58;;;;;;;506.10;305.93;;;;;;;;;;4980342;28;20345;-49
2023/09/04 09:55:25;;;;;;;497.97;303.03;;;;;;;;;;4982742;28;20221;-49
2023/09/04 09:57:52;;;;;;;486.13;293.37;;;;;;;;;;4980399;28;20695;-49
2023/09/04 10:06:25;;;;;;;474.90;290.40;;;;;;;;;;4978750;28;20722;-49
2023/09/04 10:08:52;;;;;;;462.20;281.50;;;;;;;;;;4984567;28;20215;-49
2023/09/04 10:11:18;;;;;;;512.63;315.43;;;;;;;;;;4976280;28;20337;-49
2023/09/04 10:13:47;;;;;;;497.53;305.00;;;;;;;;;;4981813;28;20217;-49
2023/09/04 10:16:16;;;;;;;499.10;317.57;;;;;;;;;;4974541;28;20380;-50
2023/09/04 10:18:44;;;;;;;493.70;306.90;;;;;;;;;;4975960;28;20347;-49
2023/09/04 10:21:14;;;;;;;480.37;290.43;;;;;;;;;;4980454;28;20221;-49
2023/09/04 10:23:49;;;;;;;473.77;291.87;;;;;;;;;;4986411;28;20656;-49
2023/09/04 10:26:18;;;;;;;526.10;319.90;;;;;;;;;;4977182;28;20196;-49
2023/09/04 10:28:48;;;;;;;485.43;305.57;;;;;;;;;;4976774;28;20801;-49
2023/09/04 10:31:15;;;;;;;460.67;290.00;;;;;;;;;;4981496;28;20228;-49
2023/09/04 10:33:41;;;;;;;491.87;309.03;;;;;;;;;;4984940;28;20259;-49
2023/09/04 10:36:08;;;;;;;484.07;305.50;;;;;;;;;;4986147;28;20640;-49
2023/09/04 10:38:34;;;;;;;468.40;285.47;;;;;;;;;;4981515;28;21005;-49
2023/09/04 10:41:00;;;;;;;525.90;316.93;;;;;;;;;;4968776;28;20296;-47
2023/09/04 10:43:41;;;;;;;538.23;332.33;;;;;;;;;;4971096;28;20263;-48
2023/09/04 10:46:08;;;;;;;486.37;304.40;;;;;;;;;;4988088;28;20228;-48
2023/09/04 10:49:00;;;;;;;510.30;320.30;;;;;;;;;;4975508;28;20236;-48
2023/09/04 10:51:33;;;;;;;512.60;311.27;;;;;;;;;;4966495;28;20331;-47
2023/09/04 10:54:03;;;;;;;544.70;333.57;;;;;;;;;;4972386;28;20936;-47
2023/09/04 10:56:49;;;;;;;530.03;330.57;;;;;;;;;;4975033;28;20189;-48
2023/09/04 10:59:15;;;;;;;523.93;318.40;;;;;;;;;;4977307;28;20363;-48
2023/09/04 11:01:41;;;;;;;486.77;299.13;;;;;;;;;;4979723;28;20223;-48
2023/09/04 11:04:08;;;;;;;478.10;292.90;;;;;;;;;;4990878;28;20532;-48
2023/09/04 11:06:54;;;;;;;488.47;311.57;;;;;;;;;;4994019;28;20221;-49
2023/09/04 11:09:22;;;;;;;542.43;334.73;;;;;;;;;;4984133;28;20213;-47
2023/09/04 11:11:57;;;;;;;564.30;352.10;;;;;;;;;;4959120;28;20255;-48
2023/09/04 11:14:32;;;;;;;504.27;314.83;;;;;;;;;;4971598;28;20212;-48
2023/09/04 11:17:03;;;;;;;529.37;335.83;;;;;;;;;;4968856;28;20224;-48
2023/09/04 11:19:29;;;;;;;497.53;318.57;;;;;;;;;;4982300;28;20251;-49
2023/09/04 11:21:56;;;;;;;489.53;314.83;;;;;;;;;;4985398;28;20803;-49
2023/09/04 11:24:22;;;;;;;499.73;320.60;;;;;;;;;;4977182;28;20545;-50
2023/09/04 11:26:48;;;;;;;474.07;317.53;;;;;;;;;;4983897;28;20189;-49
2023/09/04 11:29:19;;;;;;;490.50;317.17;;;;;;;;;;4989295;28;20676;-50
2023/09/04 11:32:12;;;;;;;469.63;303.40;;;;;;;;;;4986629;28;20225;-49
2023/09/04 11:34:38;;;;;;;493.97;318.30;;;;;;;;;;4985177;28;20770;-49
2023/09/04 11:37:05;;;;;;;502.90;324.60;;;;;;;;;;4981790;28;20233;-49
2023/09/04 11:39:30;;;;;;;494.20;321.67;;;;;;;;;;4984364;28;20212;-49
2023/09/04 11:41:56;;;;;;;493.23;321.50;;;;;;;;;;4980459;28;20337;-49
2023/09/04 11:44:23;;;;;;;511.37;340.13;;;;;;;;;;4981914;28;20264;-49
2023/09/04 11:46:50;;;;;;;464.03;301.80;;;;;;;;;;4985245;28;20205;-49
2023/09/04 11:49:17;;;;;;;508.63;335.40;;;;;;;;;;4978115;28;20220;-50
2023/09/04 11:51:44;;;;;;;491.13;330.60;;;;;;;;;;4984764;28;20301;-49
2023/09/04 11:54:10;;;;;;;489.63;333.17;;;;;;;;;;4981562;28;20304;-49
2023/09/04 11:56:37;;;;;;;485.70;327.93;;;;;;;;;;4987071;28;20268;-49
2023/09/04 11:59:04;;;;;;;484.10;327.70;;;;;;;;;;4984410;28;20241;-49
2023/09/04 12:01:30;;;;;;;491.30;331.80;;;;;;;;;;4985641;28;20652;-49
2023/09/04 12:03:56;;;;;;;485.00;333.47;;;;;;;;;;4982115;28;20225;-50
2023/09/04 12:06:28;;;;;;;512.47;348.73;;;;;;;;;;4982978;28;20216;-49
2023/09/04 12:08:54;;;;;;;536.97;371.47;;;;;;;;;;4981725;28;20612;-49
2023/09/04 12:11:21;;;;;;;533.53;368.50;;;;;;;;;;4971415;28;25102;-49
2023/09/04 12:13:47;;;;;;;500.20;340.53;;;;;;;;;;4987838;28;20277;-49
2023/09/04 12:16:16;;;;;;;513.60;349.97;;;;;;;;;;4983082;28;20628;-49
2023/09/04 12:18:43;;;;;;;483.97;342.47;;;;;;;;;;4979885;28;20221;-49
2023/09/04 12:21:09;;;;;;;482.70;338.40;;;;;;;;;;4984710;28;20407;-49
2023/09/04 12:23:43;;;;;;;529.57;374.80;;;;;;;;;;4982009;28;20220;-49
2023/09/04 12:26:09;;;;;;;514.63;366.10;;;;;;;;;;4983412;28;21115;-50
2023/09/04 12:28:36;;;;;;;485.83;353.30;;;;;;;;;;4986248;28;20888;-50
2023/09/04 12:31:02;;;;;;;478.57;360.73;;;;;;;;;;4990051;28;20719;-49
2023/09/04 12:33:28;;;;;;;484.70;354.10;;;;;;;;;;4988028;28;20527;-50
2023/09/04 12:35:59;;;;;;;494.13;365.13;;;;;;;;;;4988878;28;20189;-50
2023/09/04 12:38:25;;;;;;;499.83;371.07;;;;;;;;;;4983277;28;20207;-49
2023/09/04 12:40:51;;;;;;;502.03;373.40;;;;;;;;;;4981509;28;20679;-49
2023/09/04 12:43:17;;;;;;;492.63;361.70;;;;;;;;;;4982844;28;20224;-49
2023/09/04 12:45:43;;;;;;;501.97;368.70;;;;;;;;;;4985360;28;20580;-50
2023/09/04 12:48:15;;;;;;;494.20;373.67;;;;;;;;;;4988266;28;20380;-49
2023/09/04 12:50:41;;;;;;;516.83;394.70;;;;;;;;;;4987471;28;20209;-49
2023/09/04 12:53:07;;;;;;;506.73;383.30;;;;;;;;;;4986481;28;20253;-50
2023/09/04 12:55:33;;;;;;;516.90;398.80;;;;;;;;;;4983246;28;20268;-50
2023/09/04 12:58:00;;;;;;;503.63;388.13;;;;;;;;;;4990809;28;20236;-50
2023/09/04 13:00:27;;;;;;;511.90;398.13;;;;;;;;;;4984274;28;20225;-49
2023/09/04 13:02:54;;;;;;;492.00;384.27;;;;;;;;;;4993955;28;20288;-50
2023/09/04 13:05:20;;;;;;;506.17;391.77;;;;;;;;;;4983755;28;20219;-50
2023/09/04 13:07:46;;;;;;;487.43;384.80;;;;;;;;;;4992586;28;20593;-50
2023/09/04 13:10:12;;;;;;;498.83;392.90;;;;;;;;;;4988165;28;20228;-50
2023/09/04 13:12:38;;;;;;;523.93;412.80;;;;;;;;;;4980045;28;20426;-50
2023/09/04 13:15:04;;;;;;;513.83;412.37;;;;;;;;;;4986577;28;20587;-50
2023/09/04 13:17:30;;;;;;;503.70;396.67;;;;;;;;;;4991208;28;20193;-50
2023/09/04 13:19:56;;;;;;;517.37;415.67;;;;;;;;;;4972729;28;20240;-50
2023/09/04 13:22:23;;;;;;;503.50;394.43;;;;;;;;;;4989953;28;20264;-49
2023/09/04 13:24:49;;;;;;;517.43;411.07;;;;;;;;;;4984213;28;20225;-49
2023/09/04 13:27:15;;;;;;;501.17;400.17;;;;;;;;;;4986421;28;20222;-49
2023/09/04 13:29:41;;;;;;;504.03;401.57;;;;;;;;;;4988610;28;20512;-50
2023/09/04 13:32:07;;;;;;;498.83;405.80;;;;;;;;;;5000832;28;20248;-50
2023/09/04 13:34:33;;;;;;;509.50;426.13;;;;;;;;;;4990294;28;20540;-49
2023/09/04 13:36:59;;;;;;;508.77;430.40;;;;;;;;;;4988792;28;20264;-50
2023/09/04 13:39:25;;;;;;;569.60;492.57;;;;;;;;;;4983546;28;20247;-50
2023/09/04 13:41:51;;;;;;;521.47;450.03;;;;;;;;;;4982651;28;20197;-49
2023/09/04 13:44:18;;;;;;;517.20;454.13;;;;;;;;;;4986030;28;20738;-50
2023/09/04 13:46:44;;;;;;;520.00;445.60;;;;;;;;;;4989385;28;20220;-50
2023/09/04 13:49:09;;;;;;;514.87;456.90;;;;;;;;;;4986634;28;20687;-50
2023/09/04 13:51:35;;;;;;;530.97;472.17;;;;;;;;;;4987774;28;20244;-48
2023/09/04 13:54:02;;;;;;;543.47;483.47;;;;;;;;;;4983390;28;20233;-47
2023/09/04 13:56:28;;;;;;;558.17;498.40;;;;;;;;;;4986532;28;20528;-48
2023/09/04 13:58:54;;;;;;;554.40;496.13;;;;;;;;;;4980673;28;20978;-48
2023/09/04 14:01:20;;;;;;;551.05;493.48;;;;;;;;;;4989497;28;20228;-48
2023/09/04 14:03:46;;;;;;;587.97;528.78;;;;;;;;;;4989569;28;20371;-48
2023/09/04 14:06:12;;;;;;;587.72;530.25;;;;;;;;;;4991341;28;20225;-48
2023/09/04 14:08:38;;;;;;;607.33;548.05;;;;;;;;;;4988375;28;20185;-47
2023/09/04 14:11:04;;;;;;;622.45;563.20;;;;;;;;;;4989562;28;20553;-48
2023/09/04 14:13:30;;;;;;;630.38;570.78;;;;;;;;;;4993446;28;20254;-48
2023/09/04 14:15:56;;;;;;;635.63;577.85;;;;;;;;;;4984209;28;20217;-48
2023/09/04 14:18:22;;;;;;;654.25;595.30;;;;;;;;;;4986449;28;20208;-48
2023/09/04 14:20:48;;;;;;;649.70;592.20;;;;;;;;;;4987681;28;20196;-48
2023/09/04 14:23:14;;;;;;;669.80;610.35;;;;;;;;;;4988726;28;20184;-48
2023/09/04 14:25:40;;;;;;;665.85;606.78;;;;;;;;;;4987687;28;20570;-48
2023/09/04 14:28:06;;;;;;;694.78;634.72;;;;;;;;;;4983754;28;20225;-48
2023/09/04 14:30:32;;;;;;;706.72;645.80;;;;;;;;;;4990625;28;20528;-48
2023/09/04 14:32:59;;;;;;;703.50;642.75;;;;;;;;;;4985668;28;20482;-48
2023/09/04 14:35:25;;;;;;;692.20;631.33;;;;;;;;;;5006585;23;20229;-50
2023/09/04 14:37:51;;;;;;;688.03;628.97;;;;;;;;;;4998742;28;20239;-50
2023/09/04 14:40:17;;;;;;;674.03;614.55;;;;;;;;;;4995080;28;20295;-50
2023/09/04 14:42:43;;;;;;;689.70;631.13;;;;;;;;;;4996098;28;20733;-50
2023/09/04 14:45:09;;;;;;;682.70;623.55;;;;;;;;;;5001653;28;20720;-52
2023/09/04 14:47:35;;;;;;;721.67;658.38;;;;;;;;;;4975140;28;20729;-50
2023/09/04 14:50:03;;;;;;;703.80;643.55;;;;;;;;;;5001978;28;20718;-50
2023/09/04 14:52:29;;;;;;;652.65;595.33;;;;;;;;;;4995228;28;20311;-50
2023/09/04 14:54:55;;;;;;;692.03;631.13;;;;;;;;;;4995906;28;20847;-50
2023/09/04 14:57:20;;;;;;;697.72;638.35;;;;;;;;;;4975685;28;20215;-50
2023/09/04 14:59:46;;;;;;;680.65;623.28;;;;;;;;;;4995890;28;20196;-52
2023/09/04 15:02:12;;;;;;;720.95;661.70;;;;;;;;;;4992016;28;20690;-51
2023/09/04 15:04:43;;;;;;;694.83;634.88;;;;;;;;;;5000039;28;20216;-51
2023/09/04 15:07:09;;;;;;;725.13;664.60;;;;;;;;;;5002323;28;20216;-51
2023/09/04 15:09:35;;;;;;;747.92;686.65;;;;;;;;;;5003448;28;20590;-51
2023/09/04 15:12:02;;;;;;;751.80;686.10;;;;;;;;;;4992013;28;20235;-51
2023/09/04 15:14:27;;;;;;;732.30;672.10;;;;;;;;;;4994195;28;20210;-51
2023/09/04 15:20:16;;;;;;;678.25;621.25;;;;;;;;;;5025749;28;20182;-51
2023/09/04 15:22:42;;;;;;;703.17;645.55;;;;;;;;;;4994062;22;20254;-51
2023/09/04 15:25:08;;;;;;;691.95;637.33;;;;;;;;;;4976448;28;20249;-50
2023/09/04 15:27:34;;;;;;;678.05;623.17;;;;;;;;;;4970769;28;20316;-51
2023/09/04 15:30:00;;;;;;;682.70;626.72;;;;;;;;;;4987324;28;20672;-50
2023/09/04 15:32:26;;;;;;;699.22;642.28;;;;;;;;;;4987959;28;20290;-50
2023/09/04 15:34:52;;;;;;;681.00;624.78;;;;;;;;;;4987306;28;20351;-51
2023/09/04 15:37:18;;;;;;;695.78;639.50;;;;;;;;;;4952318;28;20279;-50
2023/09/04 15:39:44;;;;;;;653.53;600.95;;;;;;;;;;4979046;28;20213;-52
2023/09/04 15:42:12;;;;;;;673.92;619.47;;;;;;;;;;4969734;28;20173;-52
2023/09/04 15:44:38;;;;;;;686.33;630.60;;;;;;;;;;4987977;28;20558;-52
2023/09/04 15:47:05;;;;;;;655.45;601.75;;;;;;;;;;4987797;28;20221;-52
2023/09/04 15:49:31;;;;;;;661.90;607.47;;;;;;;;;;4987003;28;20221;-52
2023/09/04 15:51:56;;;;;;;671.88;616.35;;;;;;;;;;4969295;28;20279;-52
2023/09/04 15:54:29;;;;;;;663.25;607.72;;;;;;;;;;4987374;28;20225;-52
2023/09/04 15:56:55;;;;;;;667.28;611.33;;;;;;;;;;4987600;28;20487;-52
2023/09/04 15:59:21;;;;;;;641.35;587.75;;;;;;;;;;4987785;28;20178;-51
2023/09/04 16:01:47;;;;;;;658.45;604.38;;;;;;;;;;4987396;28;20748;-51
2023/09/04 16:04:14;;;;;;;632.47;578.55;;;;;;;;;;4987469;28;20583;-51
2023/09/04 16:06:39;;;;;;;629.17;574.80;;;;;;;;;;4986547;28;20217;-51
2023/09/04 16:09:05;;;;;;;631.08;576.08;;;;;;;;;;4986688;28;20225;-52
2023/09/04 16:11:31;;;;;;;633.35;577.70;;;;;;;;;;4988144;28;20201;-52
2023/09/04 16:13:57;;;;;;;628.92;573.38;;;;;;;;;;4970484;28;20222;-52
2023/09/04 16:16:23;;;;;;;597.13;543.67;;;;;;;;;;4989046;28;20644;-52
2023/09/04 16:18:49;;;;;;;573.22;520.20;;;;;;;;;;4991231;28;20220;-52
2023/09/04 16:21:16;;;;;;;572.75;519.42;;;;;;;;;;4991832;28;20248;-52
2023/09/04 16:23:43;;;;;;;546.45;498.63;;;;;;;;;;4991429;28;20209;-52
2023/09/04 16:26:09;;;;;;;503.00;457.43;;;;;;;;;;4994071;28;20186;-52
2023/09/04 16:28:35;;;;;;;517.13;470.70;;;;;;;;;;4994014;28;20719;-52
2023/09/04 16:31:01;;;;;;;498.80;451.80;;;;;;;;;;4993740;28;20303;-52
2023/09/04 16:33:27;;;;;;;484.67;438.50;;;;;;;;;;4993286;28;20700;-52
2023/09/04 16:35:53;;;;;;;488.63;442.03;;;;;;;;;;4993606;28;20181;-52
2023/09/04 16:38:19;;;;;;;462.60;417.03;;;;;;;;;;4993793;28;20188;-51
2023/09/04 16:40:45;;;;;;;473.67;423.77;;;;;;;;;;4993462;28;20237;-52
2023/09/04 16:43:11;;;;;;;478.40;407.40;;;;;;;;;;4976569;28;20225;-52
2023/09/04 16:45:37;;;;;;;493.93;422.73;;;;;;;;;;4995332;28;20228;-52
2023/09/04 16:48:04;;;;;;;502.67;418.83;;;;;;;;;;4995299;28;20264;-52
2023/09/04 16:50:30;;;;;;;466.53;404.97;;;;;;;;;;4996514;28;20211;-52
2023/09/04 16:52:56;;;;;;;461.10;390.47;;;;;;;;;;4996080;28;20686;-52
2023/09/04 16:55:22;;;;;;;497.03;396.03;;;;;;;;;;4995502;28;20902;-52
2023/09/04 16:57:48;;;;;;;466.93;377.80;;;;;;;;;;4995553;28;20225;-51
2023/09/04 17:00:14;;;;;;;494.43;384.63;;;;;;;;;;4995346;28;20220;-52
2023/09/04 17:02:40;;;;;;;478.13;363.77;;;;;;;;;;4995633;28;20178;-51
2023/09/04 17:05:06;;;;;;;478.27;370.67;;;;;;;;;;4995452;28;20188;-51
2023/09/04 17:07:32;;;;;;;470.97;358.50;;;;;;;;;;4994626;28;20217;-51
2023/09/04 17:09:58;;;;;;;462.73;357.00;;;;;;;;;;4995127;28;20230;-53
2023/09/04 17:12:24;;;;;;;456.53;356.77;;;;;;;;;;4995378;28;20243;-51
2023/09/04 17:14:50;;;;;;;449.20;342.10;;;;;;;;;;4995678;28;20201;-52
2023/09/04 17:17:16;;;;;;;467.77;347.83;;;;;;;;;;4995784;28;20258;-51
2023/09/04 17:19:42;;;;;;;486.03;348.17;;;;;;;;;;4991613;28;20227;-51
2023/09/04 17:22:08;;;;;;;465.83;339.47;;;;;;;;;;4991966;28;20753;-52
2023/09/04 17:24:34;;;;;;;469.60;346.37;;;;;;;;;;4992183;28;20229;-51
2023/09/04 17:27:02;;;;;;;448.87;318.80;;;;;;;;;;4992802;28;20225;-52
2023/09/04 17:29:27;;;;;;;448.67;330.07;;;;;;;;;;4994121;28;20209;-51
2023/09/04 17:31:54;;;;;;;457.30;327.53;;;;;;;;;;4992770;28;20664;-51
2023/09/04 17:34:24;;;;;;;479.73;329.97;;;;;;;;;;4992332;28;20217;-51
2023/09/04 17:36:50;;;;;;;471.30;321.07;;;;;;;;;;4992295;28;20763;-52
2023/09/04 17:39:16;;;;;;;458.77;315.23;;;;;;;;;;4992214;28;20221;-51
2023/09/04 17:41:42;;;;;;;465.20;320.40;;;;;;;;;;4991122;28;20181;-51
2023/09/04 17:44:08;;;;;;;465.50;325.13;;;;;;;;;;4991579;28;20245;-51
2023/09/04 17:46:34;;;;;;;452.53;305.80;;;;;;;;;;4989745;28;20224;-52
2023/09/04 17:49:00;;;;;;;470.83;315.47;;;;;;;;;;4989585;28;20221;-52
2023/09/04 17:51:26;;;;;;;460.53;310.53;;;;;;;;;;4989655;28;20243;-51
2023/09/04 17:53:52;;;;;;;478.10;320.10;;;;;;;;;;4988698;28;20672;-51
2023/09/04 17:56:19;;;;;;;476.83;313.47;;;;;;;;;;4989815;28;20201;-51
2023/09/04 17:58:45;;;;;;;480.80;313.80;;;;;;;;;;4989384;28;20313;-51
2023/09/04 18:01:11;;;;;;;482.03;311.40;;;;;;;;;;4989508;28;20226;-51
2023/09/04 18:03:37;;;;;;;458.17;291.13;;;;;;;;;;4989187;28;20316;-52
2023/09/04 18:06:03;;;;;;;456.77;292.33;;;;;;;;;;4989720;28;20316;-51
2023/09/04 18:08:29;;;;;;;454.77;292.93;;;;;;;;;;4989612;28;20491;-51
2023/09/04 18:11:02;;;;;;;436.53;279.93;;;;;;;;;;4989303;28;20229;-51
2023/09/04 18:13:28;;;;;;;459.17;291.63;;;;;;;;;;4988823;28;20233;-51
2023/09/04 18:15:54;;;;;;;467.37;283.40;;;;;;;;;;4988944;28;20213;-51
2023/09/04 18:18:20;;;;;;;460.33;287.00;;;;;;;;;;4988775;28;20279;-51
2023/09/04 18:20:46;;;;;;;441.77;276.13;;;;;;;;;;4988992;28;20181;-51
2023/09/04 18:23:13;;;;;;;440.40;272.27;;;;;;;;;;4989211;28;20743;-51
2023/09/04 18:25:39;;;;;;;457.07;278.80;;;;;;;;;;4989052;28;20214;-52
2023/09/04 18:28:05;;;;;;;442.30;268.77;;;;;;;;;;4989021;28;20252;-52
2023/09/04 18:30:31;;;;;;;458.77;282.23;;;;;;;;;;4988600;28;20315;-52
2023/09/04 18:32:57;;;;;;;463.87;281.37;;;;;;;;;;4988301;28;20309;-52
2023/09/04 18:35:25;;;;;;;440.90;257.13;;;;;;;;;;4971340;28;20240;-52
2023/09/04 18:37:54;;;;;;;446.27;264.77;;;;;;;;;;4988524;28;20225;-52
2023/09/04 18:40:22;;;;;;;455.93;266.77;;;;;;;;;;4988345;28;20272;-52
2023/09/04 18:42:48;;;;;;;447.40;267.67;;;;;;;;;;4988534;28;20639;-52
2023/09/04 18:45:14;;;;;;;454.07;272.00;;;;;;;;;;4988454;28;20213;-52
2023/09/04 18:47:40;;;;;;;444.37;262.87;;;;;;;;;;4988560;28;20182;-52
2023/09/04 18:50:07;;;;;;;441.97;263.20;;;;;;;;;;4989099;28;20257;-51
2023/09/04 18:52:34;;;;;;;442.40;256.07;;;;;;;;;;4988170;28;20221;-51
2023/09/04 18:55:00;;;;;;;433.60;256.33;;;;;;;;;;4988162;28;20566;-52
2023/09/04 18:57:26;;;;;;;462.67;265.37;;;;;;;;;;4988090;28;20217;-51
2023/09/04 18:59:52;;;;;;;431.10;249.40;;;;;;;;;;4988533;28;20201;-52
2023/09/04 19:02:18;;;;;;;432.30;244.13;;;;;;;;;;4988706;28;20387;-52
2023/09/04 19:04:44;;;;;;;438.93;252.10;;;;;;;;;;4969414;28;20229;-51
2023/09/04 19:07:10;;;;;;;462.17;263.43;;;;;;;;;;4988209;28;20225;-52
2023/09/04 19:09:37;;;;;;;446.67;253.30;;;;;;;;;;4987805;28;20225;-52
2023/09/04 19:12:03;;;;;;;463.07;264.17;;;;;;;;;;4987810;28;20348;-51
2023/09/04 19:14:29;;;;;;;451.43;257.40;;;;;;;;;;4988197;28;20255;-52
2023/09/04 19:16:55;;;;;;;438.90;250.57;;;;;;;;;;4987955;28;20221;-52
2023/09/04 19:19:24;;;;;;;442.70;250.73;;;;;;;;;;4987694;28;20341;-52
2023/09/04 19:21:50;;;;;;;450.17;249.73;;;;;;;;;;4987856;28;20221;-52
2023/09/04 19:24:16;;;;;;;436.73;242.47;;;;;;;;;;4987414;28;20240;-52
2023/09/04 19:26:42;;;;;;;459.87;256.07;;;;;;;;;;4987562;28;20189;-52
2023/09/04 19:29:08;;;;;;;453.20;251.27;;;;;;;;;;4987796;28;20181;-52
2023/09/04 19:31:34;;;;;;;456.83;256.17;;;;;;;;;;4987296;28;20233;-52
2023/09/04 19:34:00;;;;;;;448.17;253.03;;;;;;;;;;4987468;28;20226;-51
2023/09/04 19:36:27;;;;;;;444.77;242.80;;;;;;;;;;4987736;28;20355;-52
2023/09/04 19:38:53;;;;;;;439.40;244.30;;;;;;;;;;4987455;28;20185;-51
2023/09/04 19:41:19;;;;;;;437.17;244.13;;;;;;;;;;4988304;28;20191;-51
2023/09/04 19:43:45;;;;;;;432.90;239.47;;;;;;;;;;4987604;28;20221;-51
2023/09/04 19:46:11;;;;;;;445.07;243.43;;;;;;;;;;4987370;28;20217;-51
2023/09/04 19:48:37;;;;;;;454.63;247.57;;;;;;;;;;4987269;28;20824;-52
2023/09/04 19:51:03;;;;;;;454.40;242.83;;;;;;;;;;4987316;28;20225;-51
2023/09/04 19:53:29;;;;;;;456.43;246.60;;;;;;;;;;4987542;28;20564;-51
2023/09/04 19:55:55;;;;;;;421.67;222.50;;;;;;;;;;4987754;28;20223;-52
2023/09/04 19:58:21;;;;;;;439.30;244.57;;;;;;;;;;4987735;28;20308;-51
2023/09/04 20:00:47;;;;;;;436.47;234.90;;;;;;;;;;4987402;28;20305;-51
2023/09/04 20:03:13;;;;;;;455.47;236.27;;;;;;;;;;4987171;28;20236;-51
2023/09/04 20:05:39;;;;;;;459.60;244.07;;;;;;;;;;4986990;28;20178;-51
2023/09/04 20:08:05;;;;;;;452.93;241.27;;;;;;;;;;4987444;28;20211;-51
2023/09/04 20:10:31;;;;;;;447.33;235.33;;;;;;;;;;4986998;28;20469;-51
2023/09/04 20:12:57;;;;;;;436.73;234.67;;;;;;;;;;4986900;28;20736;-51
2023/09/04 20:15:23;;;;;;;446.70;235.87;;;;;;;;;;4987123;28;20228;-51
2023/09/04 20:17:49;;;;;;;445.20;237.90;;;;;;;;;;4987036;28;20253;-51
2023/09/04 20:20:15;;;;;;;433.70;227.97;;;;;;;;;;4987781;28;20655;-52
2023/09/04 20:22:40;;;;;;;449.93;239.73;;;;;;;;;;4987051;28;20353;-51
2023/09/04 20:25:07;;;;;;;448.50;236.97;;;;;;;;;;4986841;28;20236;-51
2023/09/04 20:27:33;;;;;;;455.67;241.70;;;;;;;;;;4987175;28;20394;-51
2023/09/04 20:29:59;;;;;;;453.37;235.37;;;;;;;;;;4987162;28;20304;-51
2023/09/04 20:32:25;;;;;;;449.27;236.03;;;;;;;;;;4987061;28;20395;-51
2023/09/04 20:34:50;;;;;;;434.37;230.50;;;;;;;;;;4986882;28;20221;-51
2023/09/04 20:37:17;;;;;;;438.83;235.03;;;;;;;;;;4987189;28;20224;-52
2023/09/04 20:39:43;;;;;;;428.80;224.10;;;;;;;;;;4987020;28;20216;-52
2023/09/04 20:42:09;;;;;;;460.07;243.73;;;;;;;;;;4986627;28;20232;-51
2023/09/04 20:44:35;;;;;;;448.73;234.07;;;;;;;;;;4987101;28;20562;-51
2023/09/04 20:47:02;;;;;;;444.23;230.33;;;;;;;;;;4987293;28;20220;-51
2023/09/04 20:49:28;;;;;;;429.80;225.17;;;;;;;;;;4986568;28;20365;-52
2023/09/04 20:51:54;;;;;;;430.10;227.53;;;;;;;;;;4986843;28;20229;-52
2023/09/04 20:54:20;;;;;;;433.60;235.20;;;;;;;;;;4986967;28;20604;-52
2023/09/04 20:56:46;;;;;;;431.97;229.70;;;;;;;;;;4986850;28;20348;-51
2023/09/04 20:59:12;;;;;;;441.93;228.63;;;;;;;;;;4969630;28;20560;-52
2023/09/04 21:01:38;;;;;;;432.40;225.67;;;;;;;;;;4986534;28;20240;-51
2023/09/04 21:04:06;;;;;;;436.50;233.53;;;;;;;;;;4986358;28;20929;-52
2023/09/04 21:06:32;;;;;;;437.97;227.30;;;;;;;;;;4986621;28;20239;-52
2023/09/04 23:22:57;;;;;;;494.60;257.30;;;;;;;;;;4965927;28;22027;-68
2023/09/04 23:25:27;;;;;;;506.27;264.70;;;;;;;;;;4953316;28;20304;-69
2023/09/04 23:27:53;;;;;;;476.23;237.10;;;;;;;;;;4973862;28;20608;-69
2023/09/04 23:30:20;;;;;;;522.27;267.17;;;;;;;;;;4974558;28;20789;-69
2023/09/04 23:33:01;;;;;;;481.73;240.17;;;;;;;;;;4983766;28;20214;-69
2023/09/04 23:36:04;;;;;;;520.77;268.87;;;;;;;;;;4981940;28;20192;-69
2023/09/04 23:46:48;;;;;;;526.80;263.67;;;;;;;;;;4984518;28;20220;-68
2023/09/04 23:49:14;;;;;;;461.10;227.07;;;;;;;;;;4982194;28;20213;-68
2023/09/04 23:51:40;;;;;;;481.70;241.90;;;;;;;;;;4985817;28;20227;-68
2023/09/04 23:54:07;;;;;;;520.37;258.90;;;;;;;;;;4982933;28;20221;-68
2023/09/04 23:56:33;;;;;;;488.03;246.40;;;;;;;;;;4969997;28;20193;-68
2023/09/04 23:58:59;;;;;;;470.17;233.87;;;;;;;;;;4976588;28;20259;-68
